^^
Datos históricos de la estación: Murcia-Puente Tocinos
Diario Informe para Junio 23, 2019 Unidades:  Ingés    Métrico   Ambas
Diario Semanal Mensual Anual
  Máxima: Mínima: Promedio:
Temperatura: 67.8 °F 51.6 °F 58.5 °F
Punto de rocio: 52.9 °F 43.2 °F 48.7 °F
Humedad: 93% 41.6% 73%
Velocidad viento: 9.7mph 0mph 3.7mph
Racha viento: 19mph - -
Viento- - SSO
Presión: 29.9 in 29.7 in -
Precipitación: 0 in    
 
 
Tabla de datos para Junio 23, 2019
Hora Temperatura Punto de rocio Presión Viento Velocidad viento Racha viento Humedad Intensidad lluvia(por hora) Nubes
00:04 56.1 °F 52.9 °F 29.7 in SO 5.3 mph 8.5 mph 88.8% 0 in
00:09 56.1 °F 52.7 °F 29.7 in SO 5.2 mph 9 mph 88% 0 in
00:14 56.3 °F 52.9 °F 29.7 in SO 5.2 mph 11.2 mph 88% 0 in
00:19 56.5 °F 52.9 °F 29.7 in SO 5.2 mph 12 mph 88% 0 in
00:24 56.5 °F 52.9 °F 29.7 in SO 5.7 mph 10.2 mph 88% 0 in
00:29 56.3 °F 52.9 °F 29.7 in SO 5.9 mph 10.4 mph 88% 0 in
00:34 56.3 °F 52.9 °F 29.7 in SO 6.1 mph 10 mph 88% 0 in
00:39 56.3 °F 52.7 °F 29.7 in SO 6.2 mph 9.2 mph 88% 0 in
00:44 56.3 °F 52.7 °F 29.7 in SSO 5.7 mph 9 mph 88% 0 in
00:49 56.1 °F 52.5 °F 29.7 in SSO 5.4 mph 13.8 mph 88% 0 in
00:54 56.1 °F 52.5 °F 29.7 in SSO 6 mph 14 mph 88% 0 in
00:59 56.1 °F 52.5 °F 29.7 in SSO 6.2 mph 10 mph 88% 0 in
01:04 56.1 °F 52.5 °F 29.7 in SSO 5.2 mph 8 mph 88% 0 in
01:09 55.9 °F 52.3 °F 29.7 in SO 4.7 mph 7 mph 88% 0 in
01:14 55.9 °F 52.3 °F 29.7 in OSO 4 mph 5.8 mph 88% 0 in
01:19 55.9 °F 52.7 °F 29.7 in OSO 3.6 mph 6.2 mph 88.9% 0 in
01:24 55.8 °F 52.5 °F 29.7 in OSO 3.6 mph 6 mph 89% 0 in
01:29 55.8 °F 52.5 °F 29.7 in SO 3.6 mph 5.2 mph 89% 0 in
01:34 55.6 °F 52.5 °F 29.7 in OSO 2.8 mph 5 mph 89.5% 0 in
01:39 55.6 °F 52.7 °F 29.7 in OSO 2.4 mph 4.6 mph 90% 0 in
01:44 55.6 °F 52.7 °F 29.7 in OSO 2.1 mph 5 mph 90% 0 in
01:49 55.4 °F 52.5 °F 29.7 in SO 2 mph 5.9 mph 90% 0 in
01:54 55.4 °F 52.7 °F 29.7 in SSO 2.7 mph 6 mph 90.7% 0 in
01:59 55.2 °F 52.7 °F 29.7 in SSO 3.1 mph 6 mph 91% 0 in
02:04 55.2 °F 52.7 °F 29.7 in Sur 3.5 mph 6 mph 91% 0 in
02:09 55.2 °F 52.5 °F 29.7 in Sur 3.6 mph 5.2 mph 91% 0 in
02:14 55.2 °F 52.5 °F 29.7 in SSO 3.3 mph 5.8 mph 91% 0 in
02:19 55 °F 52.5 °F 29.7 in SO 3.1 mph 6.2 mph 91% 0 in
02:24 55 °F 52.5 °F 29.7 in OSO 3.4 mph 6 mph 91% 0 in
02:29 54.9 °F 52.3 °F 29.7 in SO 3.6 mph 6 mph 91% 0 in
02:34 54.9 °F 52.3 °F 29.7 in SO 3.6 mph 6 mph 91.2% 0 in
02:39 54.9 °F 52.5 °F 29.7 in SO 3.6 mph 6.9 mph 92% 0 in
02:44 54.9 °F 52.5 °F 29.7 in SSO 4 mph 7 mph 92% 0 in
02:49 54.9 °F 52.5 °F 29.7 in SO 4.3 mph 6 mph 92% 0 in
02:54 54.7 °F 52.3 °F 29.7 in OSO 3.5 mph 5.9 mph 92% 0 in
02:59 54.5 °F 52.3 °F 29.7 in OSO 3.1 mph 6.9 mph 92% 0 in
03:04 54.3 °F 52 °F 29.7 in OSO 3.5 mph 7 mph 92% 0 in
03:09 54.1 °F 52 °F 29.7 in OSO 3.6 mph 6 mph 92% 0 in
03:14 54.1 °F 51.8 °F 29.7 in OSO 3.3 mph 6 mph 92% 0 in
03:19 54 °F 51.6 °F 29.7 in Oeste 3.1 mph 5.9 mph 92% 0 in
03:24 53.8 °F 51.4 °F 29.7 in OSO 3.1 mph 6.9 mph 91.8% 0 in
03:29 53.4 °F 51.3 °F 29.7 in OSO 3.1 mph 8.1 mph 92% 0 in
03:34 53.2 °F 51.1 °F 29.7 in OSO 3.9 mph 8 mph 92% 0 in
03:39 53.2 °F 51.1 °F 29.7 in SO 4.3 mph 7 mph 92% 0 in
03:44 53.2 °F 51.1 °F 29.7 in SSO 3.9 mph 6 mph 92% 0 in
03:49 53.2 °F 51.1 °F 29.7 in SSO 3.6 mph 5 mph 92% 0 in
03:54 53.2 °F 51.1 °F 29.7 in SSO 3.1 mph 5 mph 92% 0 in
03:59 53.2 °F 51.1 °F 29.7 in SSO 2.9 mph 5 mph 92% 0 in
04:04 53.1 °F 50.9 °F 29.7 in SSO 1.8 mph 2 mph 92% 0 in
04:09 53.1 °F 50.7 °F 29.7 in SSO 1.4 mph 1 mph 92% 0 in
04:14 52.9 °F 50.5 °F 29.7 in SSO 0.5 mph 4.6 mph 92% 0 in
04:19 52.7 °F 50.4 °F 29.7 in Calm   5 mph 92% 0 in
04:24 52.5 °F 50.4 °F 29.7 in SE 1.9 mph 7.4 mph 92% 0 in
04:29 52.3 °F 50.2 °F 29.7 in SSE 2.9 mph 8.1 mph 92% 0 in
04:34 52.2 °F 50.2 °F 29.7 in SSE 4.8 mph 9.7 mph 93% 0 in
04:39 52 °F 50 °F 29.7 in Sur 5.9 mph 10 mph 93% 0 in
04:44 51.8 °F 49.8 °F 29.7 in SSE 6.2 mph 10.7 mph 93% 0 in
04:49 51.6 °F 49.8 °F 29.7 in SSE 6.4 mph 11 mph 93% 0 in
04:54 51.8 °F 49.8 °F 29.7 in Sur 6.4 mph 10 mph 93% 0 in
04:59 52 °F 50 °F 29.7 in Sur 6.4 mph 9.2 mph 93% 0 in
05:04 52.2 °F 50.2 °F 29.7 in SSO 5.6 mph 8 mph 93% 0 in
05:09 52.2 °F 50.2 °F 29.7 in SSO 5.2 mph 6 mph 93% 0 in
05:14 52.3 °F 50.4 °F 29.7 in SO 3.7 mph 5 mph 93% 0 in
05:19 52.3 °F 50.2 °F 29.7 in OSO 2.9 mph 5 mph 92.2% 0 in
05:24 52.3 °F 50.2 °F 29.7 in OSO 2.9 mph 5 mph 92% 0 in
05:29 52.3 °F 50.2 °F 29.7 in Oeste 2.9 mph 5 mph 92% 0 in
05:34 52.3 °F 50.2 °F 29.7 in OSO 2.9 mph 5.2 mph 92% 0 in
05:39 52.3 °F 50 °F 29.7 in SO 2.9 mph 5.2 mph 92% 0 in
05:44 52.2 °F 49.8 °F 29.7 in Oeste 3 mph 5 mph 92% 0 in
05:49 52.2 °F 49.8 °F 29.7 in Oeste 3.1 mph 5 mph 92% 0 in
05:54 52.2 °F 49.8 °F 29.7 in Oeste 2.2 mph 4 mph 92% 0 in
05:59 52 °F 49.5 °F 29.7 in Oeste 1.8 mph 3 mph 91.1% 0 in
06:04 52 °F 49.5 °F 29.7 in Oeste 0.6 mph   91% 0 in
06:09 52 °F 49.5 °F 29.7 in Calm   4.7 mph 91% 0 in
06:14 52.2 °F 49.8 °F 29.7 in SSO 1.4 mph 5 mph 91.8% 0 in
06:19 52.2 °F 49.8 °F 29.7 in SSO 2 mph 5.4 mph 92% 0 in
06:24 52 °F 49.5 °F 29.7 in SSE 2.6 mph 6 mph 91% 0 in
06:29 52 °F 49.5 °F 29.7 in SSE 2.9 mph 6 mph 91% 0 in
06:34 52 °F 49.3 °F 29.7 in SSE 2.9 mph 6.9 mph 91% 0 in
06:39 51.6 °F 49.3 °F 29.7 in Sur 2.9 mph 7 mph 91.5% 0 in
06:44 51.6 °F 49.5 °F 29.7 in SO 3.6 mph 7 mph 92% 0 in
06:49 51.6 °F 49.5 °F 29.7 in SO 4 mph 5 mph 92% 0 in
06:54 51.8 °F 49.5 °F 29.7 in SO 3 mph 5.2 mph 92% 0 in
06:59 51.8 °F 49.5 °F 29.7 in SO 2.4 mph 5 mph 91.5% 0 in
07:04 52 °F 49.5 °F 29.7 in OSO 2.7 mph 5.4 mph 91% 0 in
07:09 52 °F 49.5 °F 29.7 in SO 2.9 mph 6 mph 90.8% 0 in
07:14 52.2 °F 49.3 °F 29.7 in Sur 2.9 mph 5.9 mph 90% 0 in
07:19 52.3 °F 49.5 °F 29.7 in Sur 2.9 mph 6 mph 90% 0 in
07:24 52.3 °F 49.5 °F 29.7 in Sur 3.4 mph 6 mph 90% 0 in
07:29 52.3 °F 49.5 °F 29.7 in Sur 3.6 mph 6 mph 90% 0 in
07:34 52.3 °F 49.5 °F 29.7 in SSE 3.9 mph 7.6 mph 90% 0 in
07:39 52.3 °F 49.5 °F 29.7 in SSE 4 mph 8.5 mph 90% 0 in
07:44 52.2 °F 49.3 °F 29.7 in Sur 5 mph 9.2 mph 90.2% 0 in
07:49 52.2 °F 49.6 °F 29.7 in SSO 5.4 mph 9 mph 91% 0 in
07:54 52.2 °F 49.6 °F 29.7 in SSO 5 mph 7 mph 91% 0 in
07:59 52.2 °F 49.5 °F 29.7 in SO 4.7 mph 6.4 mph 90.3% 0 in
08:04 52.2 °F 49.3 °F 29.7 in SO 4 mph 7 mph 90% 0 in
08:09 52.2 °F 49.5 °F 29.7 in SO 3.6 mph 6 mph 90% 0 in
08:14 52.3 °F 49.3 °F 29.7 in SO 2.1 mph 3 mph 89.7% 0 in
08:19 52.2 °F 49.1 °F 29.7 in SO 1.4 mph   89% 0 in
08:24 52.2 °F 48.9 °F 29.7 in SO 0.4 mph 4.7 mph 89% 0 in
08:29 52.2 °F 48.7 °F 29.7 in Calm   5.2 mph 88.1% 0 in
08:34 52.3 °F 48.7 °F 29.7 in Sur 1.6 mph 5 mph 88% 0 in
08:39 52.2 °F 48.9 °F 29.7 in Sur 2.4 mph 3 mph 88.8% 0 in
08:44 52.2 °F 48.9 °F 29.7 in Sur 0.8 mph   89% 0 in
08:49 52 °F 48.9 °F 29.7 in Calm     89.2% 0 in
08:54 52 °F 49.1 °F 29.7 in Calm     90% 0 in
08:59 52 °F 49.1 °F 29.7 in Calm   3.5 mph 90% 0 in
09:04 52 °F 49.1 °F 29.7 in North 1 mph 3 mph 90% 0 in
09:09 52 °F 49.1 °F 29.7 in North 1.4 mph 2 mph 90% 0 in
09:14 51.8 °F 49.1 °F 29.7 in North 0.5 mph 4.6 mph 90.2% 0 in
09:19 51.8 °F 49.3 °F 29.7 in Calm   5 mph 91% 0 in
09:24 51.8 °F 49.3 °F 29.7 in NO 1.3 mph 4 mph 91% 0 in
09:29 52 °F 49.5 °F 29.7 in NO 2 mph 4.3 mph 91% 0 in
09:34 51.8 °F 49.3 °F 29.7 in NO 1.9 mph 5.8 mph 91% 0 in
09:39 51.6 °F 49.1 °F 29.8 in ONO 1.8 mph 6 mph 91% 0 in
09:44 51.6 °F 49.1 °F 29.8 in Oeste 2.7 mph 6 mph 91% 0 in
09:49 51.8 °F 49.3 °F 29.8 in ONO 3.1 mph 6 mph 91% 0 in
09:54 52 °F 49.5 °F 29.8 in ONO 3 mph 5 mph 91% 0 in
09:59 52.2 °F 49.5 °F 29.8 in Oeste 2.9 mph 5.2 mph 90.4% 0 in
10:04 52.3 °F 49.5 °F 29.8 in SE 2.5 mph 6.2 mph 90% 0 in
10:09 52.5 °F 49.8 °F 29.8 in ESE 2.4 mph 6 mph 90.3% 0 in
10:14 52.7 °F 49.8 °F 29.8 in ESE 2.9 mph 5 mph 90% 0 in
10:19 52.9 °F 50 °F 29.8 in ESE 3.1 mph 5 mph 90% 0 in
10:24 53.1 °F 50.4 °F 29.8 in ESE 2.4 mph 4.7 mph 90% 0 in
10:29 53.2 °F 50.2 °F 29.8 in SE 2 mph 5 mph 89.2% 0 in
10:34 53.4 °F 50.4 °F 29.8 in ESE 2 mph 5 mph 89% 0 in
10:39 53.4 °F 50.4 °F 29.8 in SE 2 mph 3.6 mph 89% 0 in
10:44 53.6 °F 50.4 °F 29.8 in SSE 2 mph 4.6 mph 88.8% 0 in
10:49 53.6 °F 50.2 °F 29.8 in Sur 2 mph 5 mph 88.1% 0 in
10:54 53.8 °F 50.4 °F 29.8 in SSE 2.6 mph 5.2 mph 88% 0 in
10:59 53.8 °F 50.2 °F 29.8 in SE 2.9 mph 5 mph 87.7% 0 in
11:04 54 °F 50.4 °F 29.8 in SE 2.9 mph 5.2 mph 87.8% 0 in
11:09 54.5 °F 50.5 °F 29.8 in SE 2.9 mph 5.8 mph 86.9% 0 in
11:14 55.2 °F 50.9 °F 29.8 in SE 3.4 mph 6 mph 85.6% 0 in
11:19 55.8 °F 50.7 °F 29.8 in SE 3.6 mph 5 mph 83.3% 0 in
11:24 56.3 °F 51.1 °F 29.8 in SE 2.5 mph 5 mph 82.6% 0 in
11:29 57 °F 51.1 °F 29.8 in SE 2 mph 3 mph 80.3% 0 in
11:34 57.7 °F 50.9 °F 29.8 in SE 1.6 mph 3.5 mph 78% 0 in
11:39 58.3 °F 50.7 °F 29.8 in OSO 1.4 mph 4.6 mph 76.3% 0 in
11:44 58.5 °F 50.7 °F 29.8 in OSO 1.7 mph 5.9 mph 75% 0 in
11:49 58.5 °F 50.4 °F 29.8 in OSO 1.8 mph 6 mph 74.5% 0 in
11:54 58.6 °F 50.7 °F 29.8 in Oeste 1.9 mph 5 mph 75% 0 in
11:59 58.6 °F 50 °F 29.8 in SO 2 mph 6.9 mph 73% 0 in
12:04 58.6 °F 49.3 °F 29.8 in Oeste 2.6 mph 7 mph 70.7% 0 in
12:09 58.8 °F 48.9 °F 29.8 in OSO 2.9 mph 7 mph 69.4% 0 in
12:14 59 °F 47.8 °F 29.8 in OSO 3 mph 6 mph 66.5% 0 in
12:19 59.4 °F 47.7 °F 29.8 in SO 3.1 mph 5 mph 65% 0 in
12:24 60.1 °F 48.2 °F 29.8 in SSO 2.2 mph 5.2 mph 64.7% 0 in
12:29 60.8 °F 48.6 °F 29.8 in SSE 1.8 mph 5.8 mph 64.1% 0 in
12:34 61.2 °F 48.6 °F 29.8 in Sur 2.7 mph 6 mph 63.3% 0 in
12:39 61.3 °F 48.6 °F 29.8 in SE 3.1 mph 6 mph 62.7% 0 in
12:44 61.5 °F 48.4 °F 29.8 in Sur 3.1 mph 6 mph 62.1% 0 in
12:49 61.7 °F 48.4 °F 29.8 in SE 3.1 mph 6.2 mph 61.4% 0 in
12:54 62.1 °F 48.4 °F 29.8 in ESE 3.1 mph 6.9 mph 61% 0 in
12:59 62.2 °F 48 °F 29.8 in Sur 3.1 mph 7 mph 60% 0 in
13:04 62.2 °F 48.2 °F 29.8 in SO 3.5 mph 7 mph 60% 0 in
13:09 62.4 °F 48.4 °F 29.8 in NE 3.6 mph 6.2 mph 60.2% 0 in
13:14 63 °F 48.9 °F 29.8 in ESE 2.8 mph 7.4 mph 60% 0 in
13:19 63.1 °F 48.7 °F 29.8 in SE 2.4 mph 7 mph 59.3% 0 in
13:24 63.5 °F 49.1 °F 29.8 in ENE 2.4 mph 6 mph 59.5% 0 in
13:29 63.9 °F 48.9 °F 29.8 in SSE 2.4 mph 7.4 mph 58.4% 0 in
13:34 64 °F 48.7 °F 29.8 in SSE 3.2 mph 7 mph 57.2% 0 in
13:39 64.2 °F 48.2 °F 29.8 in Oeste 3.6 mph 7 mph 56% 0 in
13:44 64.2 °F 48.2 °F 29.8 in SO 3.2 mph 9.7 mph 55.9% 0 in
13:49 64.4 °F 48.2 °F 29.8 in Sur 3.1 mph 10 mph 55.8% 0 in
13:54 64.9 °F 48.2 °F 29.8 in SSE 3.4 mph 7.4 mph 54.4% 0 in
13:59 65.5 °F 47.5 °F 29.7 in Sur 3.6 mph 7 mph 52.2% 0 in
14:04 65.7 °F 47.1 °F 29.7 in SE 3.9 mph 8.1 mph 51.3% 0 in
14:09 65.8 °F 46.9 °F 29.7 in SO 4 mph 8.5 mph 50.5% 0 in
14:14 65.8 °F 47.1 °F 29.7 in OSO 4.2 mph 9 mph 51% 0 in
14:19 65.8 °F 47.1 °F 29.7 in SO 4.3 mph 9.2 mph 51.1% 0 in
14:24 66 °F 46.8 °F 29.7 in ESE 3.9 mph 9 mph 49.8% 0 in
14:29 66.4 °F 47.1 °F 29.7 in ESE 3.6 mph 7.4 mph 49.9% 0 in
14:34 66.6 °F 46.4 °F 29.7 in Sur 4 mph 11.2 mph 48.2% 0 in
14:39 66.7 °F 45.3 °F 29.7 in SSO 4.3 mph 12 mph 46.2% 0 in
14:44 66.9 °F 44.4 °F 29.7 in SSO 5.6 mph 12 mph 44.3% 0 in
14:49 66.9 °F 44.4 °F 29.7 in SSO 6.2 mph 10 mph 44.1% 0 in
14:54 67.3 °F 44.4 °F 29.7 in SO 5.7 mph 8.5 mph 43.7% 0 in
14:59 67.5 °F 44.6 °F 29.7 in OSO 5.4 mph 9 mph 43.5% 0 in
15:04 67.6 °F 44.8 °F 29.7 in OSO 4.4 mph 8.5 mph 43.8% 0 in
15:09 67.8 °F 44.6 °F 29.7 in SO 4 mph 13.5 mph 43.3% 0 in
15:14 67.6 °F 44.2 °F 29.7 in SO 5.5 mph 14 mph 42.9% 0 in
15:19 67.6 °F 43.9 °F 29.7 in SO 6.2 mph 12 mph 42.3% 0 in
15:24 67.6 °F 43.7 °F 29.7 in SO 6.3 mph 12.7 mph 42% 0 in
15:29 67.5 °F 43.5 °F 29.7 in SO 6.4 mph 13 mph 42% 0 in
15:34 67.3 °F 43.7 °F 29.7 in SO 7.1 mph 13 mph 42.5% 0 in
15:39 67.3 °F 43.9 °F 29.7 in OSO 7.4 mph 12 mph 42.9% 0 in
15:44 67.3 °F 44.1 °F 29.7 in SO 6.6 mph 10 mph 43% 0 in
15:49 67.3 °F 44.2 °F 29.7 in OSO 6.2 mph 10 mph 43.4% 0 in
15:54 67.3 °F 43.7 °F 29.7 in SO 5.5 mph 9.7 mph 42.5% 0 in
15:59 67.3 °F 44.1 °F 29.7 in SO 5.2 mph 10 mph 43% 0 in
16:04 67.3 °F 43.7 °F 29.7 in SO 5.2 mph 10.4 mph 42.4% 0 in
16:09 67.3 °F 43.9 °F 29.7 in OSO 5.2 mph 10.7 mph 42.9% 0 in
16:14 67.3 °F 44.1 °F 29.7 in SO 5.2 mph 11 mph 43% 0 in
16:19 67.3 °F 44.1 °F 29.7 in SO 5.2 mph 10.7 mph 43% 0 in
16:24 67.3 °F 43.9 °F 29.7 in SSO 5.3 mph 12.3 mph 42.8% 0 in
16:29 67.3 °F 43.3 °F 29.7 in SO 5.4 mph 13 mph 42% 0 in
16:34 67.3 °F 43.3 °F 29.7 in OSO 5.7 mph 12.3 mph 41.9% 0 in
16:39 67.3 °F 43.2 °F 29.7 in OSO 5.9 mph 13 mph 41.6% 0 in
16:44 67.3 °F 43.9 °F 29.7 in OSO 6.2 mph 10 mph 42.7% 0 in
16:49 67.1 °F 43.9 °F 29.7 in SO 6.4 mph 10.4 mph 43.2% 0 in
16:54 66.9 °F 44.2 °F 29.7 in OSO 5.3 mph 10 mph 44% 0 in
16:59 66.9 °F 44.2 °F 29.7 in OSO 4.7 mph 10 mph 44% 0 in
17:04 66.9 °F 44.8 °F 29.7 in OSO 4.4 mph 9 mph 44.9% 0 in
17:09 66.9 °F 44.8 °F 29.7 in SO 4.3 mph 9.2 mph 44.8% 0 in
17:14 66.9 °F 45 °F 29.7 in OSO 4.6 mph 9.2 mph 45% 0 in
17:19 66.9 °F 44.8 °F 29.7 in SO 4.7 mph 9.2 mph 44.8% 0 in
17:24 66.9 °F 45 °F 29.7 in SO 5 mph 9 mph 45.1% 0 in
17:29 67.1 °F 45.3 °F 29.7 in SO 5.2 mph 8.1 mph 45.7% 0 in
17:34 66.9 °F 45.9 °F 29.7 in SO 4.8 mph 8 mph 46.9% 0 in
17:39 66.7 °F 46.2 °F 29.8 in SO 4.7 mph 7.6 mph 47.8% 0 in
17:44 66.6 °F 46.6 °F 29.8 in Oeste 4.2 mph 8.1 mph 48.4% 0 in
17:49 66.6 °F 47.5 °F 29.8 in ONO 4 mph 15.6 mph 50.5% 0 in
17:54 65.8 °F 48.6 °F 29.8 in NO 4.8 mph 18.5 mph 53.7% 0 in
17:59 64.4 °F 48.6 °F 29.8 in ONO 5.2 mph 19 mph 56.3% 0 in
18:04 63.5 °F 48.6 °F 29.8 in NO 8.3 mph 15 mph 58.2% 0 in
18:09 63 °F 48.9 °F 29.8 in ONO 9.7 mph 14 mph 60.3% 0 in
18:14 62.6 °F 49.1 °F 29.8 in ONO 7.8 mph 10.4 mph 61% 0 in
18:19 62.4 °F 48.6 °F 29.8 in ONO 6.9 mph 12.7 mph 60.3% 0 in
18:24 62.4 °F 48 °F 29.8 in ONO 6.6 mph 13 mph 59.3% 0 in
18:29 62.4 °F 47.7 °F 29.8 in ONO 6.4 mph 9 mph 58.2% 0 in
18:34 62.6 °F 47.5 °F 29.8 in ONO 4.8 mph 7 mph 57.8% 0 in
18:39 62.8 °F 47.5 °F 29.8 in Oeste 4 mph 7 mph 57.3% 0 in
18:44 62.8 °F 46.9 °F 29.8 in Oeste 3.7 mph 6.9 mph 56.4% 0 in
18:49 62.8 °F 46.8 °F 29.8 in Oeste 3.6 mph 7 mph 56% 0 in
18:54 62.6 °F 46.8 °F 29.8 in Oeste 3.6 mph 7 mph 56% 0 in
18:59 62.4 °F 46.6 °F 29.8 in OSO 3.6 mph 5 mph 56.2% 0 in
19:04 62.4 °F 46.9 °F 29.8 in OSO 2.7 mph 5 mph 57% 0 in
19:09 62.2 °F 46.6 °F 29.8 in Oeste 2.4 mph 6.9 mph 56.4% 0 in
19:14 62.2 °F 46.4 °F 29.8 in Oeste 3.2 mph 7 mph 56.4% 0 in
19:19 62.1 °F 46.6 °F 29.8 in OSO 3.6 mph 7 mph 57% 0 in
19:24 62.1 °F 46.9 °F 29.8 in SO 3.9 mph 7 mph 57.8% 0 in
19:29 62.1 °F 46.9 °F 29.8 in Sur 4 mph 5.2 mph 58% 0 in
19:34 61.9 °F 46.8 °F 29.8 in SSO 3.4 mph 7.4 mph 57.9% 0 in
19:39 61.9 °F 46.4 °F 29.8 in SSO 3.1 mph 7 mph 56.8% 0 in
19:44 62.1 °F 46.8 °F 29.8 in SE 3.4 mph 7 mph 57.3% 0 in
19:49 62.1 °F 47.1 °F 29.8 in Sur 3.6 mph 3.6 mph 58% 0 in
19:54 62.1 °F 47.1 °F 29.8 in Sur 2.4 mph 4 mph 58% 0 in
19:59 62.1 °F 47.5 °F 29.8 in SE 1.8 mph 5.8 mph 58.9% 0 in
20:04 61.9 °F 47.5 °F 29.8 in SSE 2.6 mph 6.9 mph 59.1% 0 in
20:09 61.7 °F 47.7 °F 29.8 in Sur 2.9 mph 7 mph 60% 0 in
20:14 61.5 °F 47.5 °F 29.8 in SSE 3 mph 6 mph 60% 0 in
20:19 61.5 °F 47.5 °F 29.8 in SSE 3.1 mph 6 mph 60% 0 in
20:24 61.5 °F 47.5 °F 29.8 in Sur 3.4 mph 5.2 mph 59.9% 0 in
20:29 61.5 °F 46.9 °F 29.8 in Sur 3.6 mph 5.2 mph 58.8% 0 in
20:34 61.9 °F 46.9 °F 29.8 in SSO 3.3 mph 5.9 mph 58% 0 in
20:39 61.9 °F 46.6 °F 29.8 in SSO 3.1 mph 6 mph 57.2% 0 in
20:44 62.1 °F 46.6 °F 29.8 in SO 3.1 mph 5.8 mph 57% 0 in
20:49 62.1 °F 46.6 °F 29.8 in OSO 3.1 mph 6 mph 57.1% 0 in
20:54 61.9 °F 47.7 °F 29.8 in NO 2.4 mph 3.6 mph 59.8% 0 in
20:59 61.5 °F 48.2 °F 29.8 in NO 2 mph 4 mph 61.6% 0 in
21:04 61.2 °F 48 °F 29.8 in NNE 2 mph 4 mph 62.3% 0 in
21:09 60.8 °F 48.4 °F 29.8 in Este 2 mph 5.9 mph 63.6% 0 in
21:14 60.4 °F 48.2 °F 29.8 in ESE 2.8 mph 6 mph 64.1% 0 in
21:19 60.3 °F 48.4 °F 29.8 in SE 3.1 mph 4.6 mph 65% 0 in
21:24 60.3 °F 48.4 °F 29.8 in SSE 3 mph 4.7 mph 65% 0 in
21:29 60.1 °F 48.4 °F 29.8 in SSO 2.7 mph 5 mph 65% 0 in
21:34 60.3 °F 48.6 °F 29.8 in OSO 3 mph 5 mph 65.2% 0 in
21:39 60.3 °F 48.9 °F 29.8 in Oeste 3.1 mph 5 mph 66.1% 0 in
21:44 60.3 °F 48.6 °F 29.8 in Oeste 2.4 mph 3 mph 65.5% 0 in
21:49 60.1 °F 48.6 °F 29.8 in Oeste 2 mph 3.6 mph 65.7% 0 in
21:54 60.3 °F 48.7 °F 29.8 in OSO 1.6 mph 4 mph 65.7% 0 in
21:59 60.3 °F 48.4 °F 29.8 in OSO 1.4 mph 5.4 mph 65% 0 in
22:04 60.3 °F 48.7 °F 29.8 in OSO 2.4 mph 6 mph 65.8% 0 in
22:09 60.3 °F 48.6 °F 29.8 in SO 2.9 mph 9.7 mph 65.4% 0 in
22:14 60.3 °F 48 °F 29.8 in SO 3.6 mph 12.5 mph 64.2% 0 in
22:19 60.3 °F 47.7 °F 29.8 in SO 4 mph 13 mph 63% 0 in
22:24 60.3 °F 47.7 °F 29.8 in SO 5.9 mph 13 mph 63% 0 in
22:29 60.3 °F 47.8 °F 29.8 in OSO 6.9 mph 12 mph 63.9% 0 in
22:34 59.9 °F 48 °F 29.8 in SO 6.6 mph 12.7 mph 65% 0 in
22:39 59.5 °F 48.2 °F 29.8 in SO 6.4 mph 13 mph 66% 0 in
22:44 59.4 °F 47.8 °F 29.8 in OSO 6.4 mph 13 mph 65.7% 0 in
22:49 59.4 °F 47.7 °F 29.8 in OSO 6.4 mph 12 mph 65% 0 in
22:54 59.4 °F 47.7 °F 29.8 in SO 6.3 mph 10.4 mph 65% 0 in
22:59 59.4 °F 47.3 °F 29.8 in SO 6.2 mph 12.7 mph 64.4% 0 in
23:04 59.4 °F 47.3 °F 29.8 in SO 6.2 mph 13 mph 64.3% 0 in
23:09 59.4 °F 47.7 °F 29.8 in SO 6.2 mph 11 mph 65% 0 in
23:14 59.4 °F 47.5 °F 29.8 in SO 6 mph 12.7 mph 64.7% 0 in
23:19 59.4 °F 47.3 °F 29.8 in SO 5.9 mph 13 mph 64.2% 0 in
23:24 59.4 °F 47.5 °F 29.8 in SO 5.6 mph 12.7 mph 64.8% 0 in
23:29 59.2 °F 47.5 °F 29.8 in SO 5.4 mph 13 mph 65% 0 in
23:34 59 °F 47.3 °F 29.8 in OSO 6.4 mph 13 mph 65.3% 0 in
23:39 58.8 °F 47.5 °F 29.9 in OSO 6.9 mph 10 mph 66% 0 in
23:44 58.8 °F 47.8 °F 29.9 in OSO 6.2 mph 9.2 mph 67% 0 in
23:49 58.6 °F 48 °F 29.9 in OSO 5.9 mph 10 mph 67.9% 0 in
23:54 58.5 °F 48.2 °F 29.9 in OSO 5.4 mph 10.4 mph 68.9% 0 in
23:59 58.5 °F 48.4 °F 29.9 in SO 5.2 mph 9 mph 69% 0 in
Murcia-Puente Tocinos, España
Compliments of Weather Underground - 3.5 mb

La estación de MeteoMurcia.com, publica sus datos en los siguientes proyectos:

Weather Underground PWS IMURCIAP2 Meteoclimatic www.awekas.at

W3Counter
Web Analytics